createdAt,value
2019-02-03T00:01:37.160Z,2.62
2019-02-03T00:04:13.755Z,2.57
2019-02-03T00:06:45.599Z,2.57
2019-02-03T00:09:15.849Z,2.59
2019-02-03T00:11:44.580Z,2.43
2019-02-03T00:14:14.787Z,2.41
2019-02-03T00:16:43.476Z,2.43
2019-02-03T00:19:14.243Z,2.59
2019-02-03T00:21:42.867Z,2.54
2019-02-03T00:24:11.547Z,2.54
2019-02-03T00:26:40.331Z,2.46
2019-02-03T00:29:08.997Z,2.48
2019-02-03T00:31:37.614Z,2.49
2019-02-03T00:34:06.395Z,2.52
2019-02-03T00:36:36.639Z,2.53
2019-02-03T00:39:07.360Z,2.51
2019-02-03T00:41:36.011Z,2.52
2019-02-03T00:44:05.295Z,2.50
2019-02-03T00:46:34.462Z,2.52
2019-02-03T00:49:03.091Z,2.42
2019-02-03T00:51:31.790Z,2.44
2019-02-03T00:54:00.431Z,2.36
2019-02-03T00:56:29.978Z,2.37
2019-02-03T00:58:58.612Z,2.49
2019-02-03T01:01:27.288Z,2.57
2019-02-03T01:03:58.012Z,2.48
2019-02-03T01:06:29.377Z,2.41
2019-02-03T01:09:00.472Z,2.29
2019-02-03T01:11:29.154Z,2.39
2019-02-03T01:13:57.925Z,2.65
2019-02-03T01:16:26.602Z,2.63
2019-02-03T01:18:55.222Z,2.49
2019-02-03T01:21:28.304Z,2.46
2019-02-03T01:23:56.930Z,2.42
2019-02-03T01:26:26.075Z,2.44
2019-02-03T01:28:56.333Z,2.66
2019-02-03T01:31:25.072Z,2.93
2019-02-03T01:33:53.750Z,2.64
2019-02-03T01:36:22.405Z,2.50
2019-02-03T01:38:54.195Z,2.80
2019-02-03T01:41:22.814Z,2.71
2019-02-03T01:43:52.947Z,2.55
2019-02-03T01:46:21.622Z,2.52
2019-02-03T01:48:50.245Z,2.71
2019-02-03T01:51:18.859Z,2.75
2019-02-03T01:53:47.921Z,2.65
2019-02-03T01:56:16.534Z,2.64
2019-02-03T01:58:46.960Z,2.68
2019-02-03T02:01:15.556Z,2.65
2019-02-03T02:03:46.971Z,2.52
2019-02-03T02:06:15.659Z,2.50
2019-02-03T02:08:44.264Z,2.50
2019-02-03T02:11:12.867Z,2.48
2019-02-03T02:13:41.551Z,2.43
2019-02-03T02:16:10.225Z,2.39
2019-02-03T02:18:40.410Z,2.38
2019-02-03T02:21:09.016Z,2.39
2019-02-03T02:23:37.695Z,2.44
2019-02-03T02:26:06.307Z,2.46
2019-02-03T02:28:34.983Z,2.60
2019-02-03T02:31:05.169Z,2.72
2019-02-03T02:33:33.843Z,2.68
2019-02-03T02:36:02.480Z,2.90
2019-02-03T02:38:31.228Z,2.57
2019-02-03T02:41:05.102Z,2.33
2019-02-03T02:43:33.758Z,2.26
2019-02-03T02:46:03.982Z,2.31
2019-02-03T02:48:32.716Z,2.37
2019-02-03T02:51:02.894Z,2.32
2019-02-03T02:53:31.504Z,2.23
2019-02-03T02:56:00.186Z,2.15
2019-02-03T02:58:28.817Z,2.15
2019-02-03T03:01:01.332Z,2.16
2019-02-03T03:03:30.422Z,2.11
2019-02-03T03:05:59.053Z,2.11
2019-02-03T03:08:27.743Z,2.01
2019-02-03T03:10:56.453Z,2.00
2019-02-03T03:13:25.108Z,1.92
2019-02-03T03:15:53.710Z,1.87
2019-02-03T03:18:22.727Z,1.86
2019-02-03T03:20:52.207Z,1.97
2019-02-03T03:23:22.350Z,1.98
2019-02-03T03:25:51.031Z,1.86
2019-02-03T03:28:19.645Z,1.91
2019-02-03T03:30:48.286Z,1.90
2019-02-03T03:33:17.247Z,1.89
2019-02-03T03:35:45.988Z,1.70
2019-02-03T03:38:14.675Z,1.84
2019-02-03T03:40:43.369Z,1.84
2019-02-03T03:43:14.678Z,1.65
2019-02-03T03:45:43.961Z,1.71
2019-02-03T03:48:12.565Z,1.69
2019-02-03T03:50:41.168Z,1.66
2019-02-03T03:53:11.400Z,1.67
2019-02-03T03:55:40.109Z,1.71
2019-02-03T03:58:20.555Z,1.72
2019-02-03T04:00:49.165Z,1.72
2019-02-03T04:03:19.439Z,1.49
2019-02-03T04:05:48.067Z,1.54
2019-02-03T04:08:16.728Z,1.50
2019-02-03T04:10:45.364Z,1.56
2019-02-03T04:13:14.145Z,1.58
2019-02-03T04:15:44.128Z,1.55
2019-02-03T04:18:12.811Z,1.52
2019-02-03T04:20:41.480Z,1.53
2019-02-03T04:23:10.137Z,1.54
2019-02-03T04:25:39.296Z,1.60
2019-02-03T04:28:07.917Z,1.48
2019-02-03T04:30:40.777Z,1.51
2019-02-03T04:33:09.400Z,1.48
2019-02-03T04:35:38.010Z,1.42
2019-02-03T04:38:06.681Z,1.49
2019-02-03T04:40:36.829Z,1.53
2019-02-03T04:43:05.498Z,1.62
2019-02-03T04:45:34.175Z,1.54
2019-02-03T04:48:02.905Z,1.59
2019-02-03T04:50:34.783Z,1.69
2019-02-03T04:53:01.973Z,1.59
2019-02-03T04:55:33.466Z,1.54
2019-02-03T04:58:02.100Z,1.46
2019-02-03T05:00:33.072Z,1.63
2019-02-03T05:03:01.696Z,1.86
2019-02-03T05:05:30.392Z,1.65
2019-02-03T05:07:58.987Z,1.54
2019-02-03T05:10:27.669Z,1.47
2019-02-03T05:12:56.346Z,1.53
2019-02-03T05:15:24.960Z,1.46
2019-02-03T05:17:53.631Z,1.49
2019-02-03T05:20:26.608Z,1.50
2019-02-03T05:22:55.684Z,1.58
2019-02-03T05:25:24.339Z,1.45
2019-02-03T05:27:52.920Z,1.51
2019-02-03T05:30:24.352Z,1.50
2019-02-03T05:32:53.025Z,1.54
2019-02-03T05:35:23.766Z,1.52
2019-02-03T05:37:55.486Z,1.56
2019-02-03T05:40:24.396Z,1.55
2019-02-03T05:42:54.519Z,1.58
2019-02-03T05:45:24.011Z,1.56
2019-02-03T05:47:53.101Z,1.57
2019-02-03T05:50:22.416Z,1.48
2019-02-03T05:52:51.081Z,1.53
2019-02-03T05:55:20.004Z,1.58
2019-02-03T05:57:48.738Z,1.60
2019-02-03T06:00:32.374Z,1.67
2019-02-03T06:03:00.971Z,1.67
2019-02-03T06:05:29.751Z,1.61
2019-02-03T06:07:58.360Z,1.50
2019-02-03T06:10:26.968Z,1.51
2019-02-03T06:12:55.659Z,1.57
2019-02-03T06:15:25.420Z,1.59
2019-02-03T06:17:54.130Z,1.65
2019-02-03T06:20:22.754Z,1.61
2019-02-03T06:22:51.439Z,1.61
2019-02-03T06:25:20.051Z,1.63
2019-02-03T06:27:49.061Z,1.64
2019-02-03T06:30:29.385Z,1.64
2019-02-03T06:32:58.052Z,1.67
2019-02-03T06:35:29.863Z,1.59
2019-02-03T06:37:58.527Z,1.63
2019-02-03T06:40:30.222Z,1.59
2019-02-03T06:42:58.946Z,1.58
2019-02-03T06:45:32.642Z,1.60
2019-02-03T06:48:01.344Z,1.61
2019-02-03T06:50:31.416Z,1.65
2019-02-03T06:53:00.153Z,1.73
2019-02-03T06:55:31.875Z,1.81
2019-02-03T06:58:00.577Z,1.76
2019-02-03T07:00:29.229Z,1.69
2019-02-03T07:02:57.867Z,1.73
2019-02-03T07:05:30.148Z,1.66
2019-02-03T07:07:58.756Z,1.87
2019-02-03T07:10:27.517Z,1.84
2019-02-03T07:12:56.125Z,1.88
2019-02-03T07:15:26.290Z,1.90
2019-02-03T07:17:55.485Z,1.92
2019-02-03T07:20:24.193Z,2.02
2019-02-03T07:22:53.169Z,2.03
2019-02-03T07:25:21.851Z,1.98
2019-02-03T07:27:50.671Z,2.10
2019-02-03T07:30:24.264Z,2.06
2019-02-03T07:32:58.941Z,1.96
2019-02-03T07:35:27.566Z,2.01
2019-02-03T07:37:57.840Z,2.12
2019-02-03T07:40:26.538Z,2.13
2019-02-03T07:42:55.147Z,2.21
2019-02-03T07:45:23.847Z,2.29
2019-02-03T07:47:52.568Z,2.34
2019-02-03T07:50:21.282Z,2.40
2019-02-03T07:52:49.959Z,2.50
2019-02-03T07:55:18.595Z,2.61
2019-02-03T07:57:51.363Z,2.99
2019-02-03T08:00:22.111Z,2.79
2019-02-03T08:02:52.368Z,2.67
2019-02-03T08:05:20.986Z,2.75
2019-02-03T08:07:49.645Z,2.77
2019-02-03T08:10:25.780Z,2.81
2019-02-03T08:12:51.761Z,2.72
2019-02-03T08:15:21.707Z,2.68
2019-02-03T08:17:50.396Z,3.00
2019-02-03T08:20:21.140Z,2.89
2019-02-03T08:22:49.859Z,3.00
2019-02-03T08:25:19.069Z,2.88
2019-02-03T08:27:48.132Z,2.79
2019-02-03T08:30:26.271Z,2.72
2019-02-03T08:32:55.048Z,2.86
2019-02-03T08:35:25.268Z,3.00
2019-02-03T08:37:53.948Z,3.01
2019-02-03T08:40:36.152Z,2.79
2019-02-03T08:42:56.570Z,3.03
2019-02-03T08:45:25.845Z,3.10
2019-02-03T08:47:54.471Z,3.10
2019-02-03T08:50:30.610Z,3.08
2019-02-03T08:52:59.632Z,3.18
2019-02-03T08:55:28.314Z,3.21
2019-02-03T08:57:57.835Z,3.29
2019-02-03T09:00:31.424Z,3.23
2019-02-03T09:03:01.777Z,3.50
2019-02-03T09:05:31.087Z,3.58
2019-02-03T09:07:59.837Z,3.40
2019-02-03T09:10:28.521Z,3.44
2019-02-03T09:12:58.581Z,3.54
2019-02-03T09:15:29.539Z,3.64
2019-02-03T09:17:58.230Z,3.77
2019-02-03T09:20:29.884Z,3.80
2019-02-03T09:22:58.831Z,4.08
2019-02-03T09:25:30.579Z,4.18
2019-02-03T09:28:00.904Z,4.42
2019-02-03T09:30:35.218Z,4.38
2019-02-03T09:33:04.114Z,4.32
2019-02-03T09:35:35.279Z,3.63
2019-02-03T09:38:08.047Z,3.32
2019-02-03T09:40:38.597Z,3.44
2019-02-03T09:43:10.557Z,3.49
2019-02-03T09:45:39.314Z,3.13
2019-02-03T09:48:10.976Z,3.44
2019-02-03T09:50:39.763Z,3.67
2019-02-03T09:53:13.349Z,3.65
2019-02-03T09:55:44.242Z,3.52
2019-02-03T09:58:19.063Z,3.70
2019-02-03T10:00:43.631Z,3.64
2019-02-03T10:03:16.525Z,3.93
2019-02-03T10:05:48.057Z,3.94
2019-02-03T10:08:19.206Z,4.23
2019-02-03T10:10:50.245Z,4.51
2019-02-03T10:13:19.042Z,4.58
2019-02-03T10:15:47.733Z,4.80
2019-02-03T10:18:16.405Z,4.89
2019-02-03T10:20:46.830Z,5.01
2019-02-03T10:23:15.831Z,5.36
2019-02-03T10:25:46.153Z,4.98
2019-02-03T10:28:14.837Z,4.88
2019-02-03T10:30:47.722Z,4.66
2019-02-03T10:33:16.374Z,4.56
2019-02-03T10:35:45.597Z,4.28
2019-02-03T10:38:14.233Z,4.32
2019-02-03T10:40:44.409Z,4.41
2019-02-03T10:43:13.115Z,4.08
2019-02-03T10:45:41.762Z,4.14
2019-02-03T10:48:10.427Z,3.93
2019-02-03T10:50:40.596Z,3.83
2019-02-03T10:53:12.356Z,3.96
2019-02-03T10:55:42.788Z,4.32
2019-02-03T10:58:11.480Z,4.10
2019-02-03T11:00:42.487Z,4.23
2019-02-03T11:03:11.203Z,4.21
2019-02-03T11:05:44.899Z,4.23
2019-02-03T11:08:14.911Z,4.33
2019-02-03T11:10:43.603Z,4.43
2019-02-03T11:13:13.798Z,4.24
2019-02-03T11:15:45.315Z,4.17
2019-02-03T11:18:14.846Z,4.38
2019-02-03T11:20:43.589Z,4.59
2019-02-03T11:23:12.590Z,4.39
2019-02-03T11:25:41.562Z,4.38
2019-02-03T11:28:10.408Z,4.57
2019-02-03T11:30:39.144Z,4.51
2019-02-03T11:33:09.930Z,4.49
2019-02-03T11:35:38.783Z,4.37
2019-02-03T11:38:07.880Z,4.75
2019-02-03T11:40:38.354Z,4.77
2019-02-03T11:43:10.790Z,5.26
2019-02-03T11:45:43.311Z,5.09
2019-02-03T11:48:20.865Z,5.23
2019-02-03T11:50:51.327Z,6.17
2019-02-03T11:53:22.815Z,6.32
2019-02-03T11:55:53.688Z,6.13
2019-02-03T11:58:22.338Z,6.01
2019-02-03T12:00:51.326Z,6.84
2019-02-03T12:03:20.148Z,6.25
2019-02-03T12:05:48.843Z,6.12
2019-02-03T12:08:19.143Z,6.25
2019-02-03T12:10:47.817Z,5.61
2019-02-03T12:13:18.777Z,5.56
2019-02-03T12:15:48.094Z,5.95
2019-02-03T12:18:18.715Z,5.55
2019-02-03T12:20:47.393Z,5.79
2019-02-03T12:23:16.218Z,5.40
2019-02-03T12:25:44.898Z,5.63
2019-02-03T12:28:14.673Z,5.37
2019-02-03T12:30:43.480Z,5.28
2019-02-03T12:33:12.343Z,5.20
2019-02-03T12:35:43.814Z,5.35
2019-02-03T12:38:12.584Z,5.38
2019-02-03T12:40:43.014Z,5.42
2019-02-03T12:43:11.698Z,5.42
2019-02-03T12:45:42.538Z,5.02
2019-02-03T12:48:11.319Z,5.08
2019-02-03T12:50:45.231Z,5.01
2019-02-03T12:53:16.924Z,5.20
2019-02-03T12:55:47.442Z,5.17
2019-02-03T12:58:19.900Z,5.11
2019-02-03T13:00:50.522Z,4.86
2019-02-03T13:03:19.520Z,4.58
2019-02-03T13:05:48.477Z,4.87
2019-02-03T13:08:21.499Z,4.68
2019-02-03T13:10:53.410Z,4.74
2019-02-03T13:13:22.562Z,4.80
2019-02-03T13:15:55.296Z,4.66
2019-02-03T13:18:24.640Z,4.60
2019-02-03T13:20:57.932Z,4.65
2019-02-03T13:23:27.004Z,4.47
2019-02-03T13:26:00.694Z,4.50
2019-02-03T13:28:29.121Z,4.62
2019-02-03T13:30:58.663Z,4.73
2019-02-03T13:33:30.405Z,4.58
2019-02-03T13:36:03.645Z,4.49
2019-02-03T13:38:34.223Z,4.57
2019-02-03T13:41:03.730Z,4.64
2019-02-03T13:43:32.605Z,4.34
2019-02-03T13:46:02.936Z,4.36
2019-02-03T13:48:34.805Z,4.55
2019-02-03T13:51:04.992Z,4.22
2019-02-03T13:53:37.712Z,4.43
2019-02-03T13:56:06.610Z,4.33
2019-02-03T13:58:38.325Z,4.06
2019-02-03T14:01:07.158Z,3.86
2019-02-03T14:03:36.792Z,4.02
2019-02-03T14:06:06.730Z,4.04
2019-02-03T14:08:35.667Z,4.05
2019-02-03T14:11:06.346Z,4.03
2019-02-03T14:13:36.989Z,4.14
2019-02-03T14:16:06.003Z,4.03
2019-02-03T14:18:36.498Z,3.86
2019-02-03T14:21:05.951Z,3.88
2019-02-03T14:23:37.798Z,3.80
2019-02-03T14:26:06.694Z,3.77
2019-02-03T14:28:35.992Z,3.71
2019-02-03T14:31:04.822Z,3.76
2019-02-03T14:33:33.837Z,3.73
2019-02-03T14:36:02.654Z,3.78
2019-02-03T14:38:33.201Z,3.68
2019-02-03T14:41:02.312Z,3.60
2019-02-03T14:43:31.210Z,3.59
2019-02-03T14:45:59.964Z,3.73
2019-02-03T14:48:30.404Z,3.63
2019-02-03T14:50:59.186Z,3.45
2019-02-03T14:53:29.408Z,3.57
2019-02-03T14:55:58.088Z,3.56
2019-02-03T14:58:27.120Z,3.51
2019-02-03T15:00:56.515Z,3.63
2019-02-03T15:03:25.294Z,3.54
2019-02-03T15:05:58.477Z,3.49
2019-02-03T15:08:27.601Z,3.59
2019-02-03T15:11:02.449Z,3.34
2019-02-03T15:13:32.521Z,3.21
2019-02-03T15:16:01.729Z,3.18
2019-02-03T15:18:32.879Z,3.35
2019-02-03T15:21:04.732Z,3.21
2019-02-03T15:23:33.403Z,3.31
2019-02-03T15:26:04.856Z,3.08
2019-02-03T15:28:33.787Z,3.27
2019-02-03T15:31:04.767Z,3.00
2019-02-03T15:33:33.062Z,2.95
2019-02-03T15:36:02.166Z,2.84
2019-02-03T15:38:32.824Z,2.73
2019-02-03T15:41:01.587Z,2.78
2019-02-03T15:43:30.368Z,2.80
2019-02-03T15:46:00.864Z,2.74
2019-02-03T15:48:30.618Z,2.78
2019-02-03T15:50:59.839Z,2.70
2019-02-03T15:53:28.507Z,2.70
2019-02-03T15:55:58.943Z,2.74
2019-02-03T15:58:32.212Z,2.71
2019-02-03T16:01:00.924Z,2.77
2019-02-03T16:03:29.691Z,2.56
2019-02-03T16:05:58.477Z,2.81
2019-02-03T16:08:31.607Z,2.58
2019-02-03T16:11:00.267Z,2.61
2019-02-03T16:13:37.310Z,2.30
2019-02-03T16:16:05.002Z,2.55
2019-02-03T16:18:38.096Z,2.55
2019-02-03T16:21:08.965Z,2.56
2019-02-03T16:23:37.738Z,2.36
2019-02-03T16:26:08.221Z,2.33
2019-02-03T16:28:39.342Z,2.33
2019-02-03T16:31:07.974Z,2.28
2019-02-03T16:33:37.131Z,2.28
2019-02-03T16:36:06.035Z,2.35
2019-02-03T16:38:35.111Z,2.28
2019-02-03T16:41:06.379Z,2.30
2019-02-03T16:43:35.166Z,2.27
2019-02-03T16:46:07.122Z,2.21
2019-02-03T16:48:35.827Z,2.20
2019-02-03T16:51:05.289Z,2.31
2019-02-03T16:53:34.611Z,2.29
2019-02-03T16:56:05.250Z,2.24
2019-02-03T16:58:33.985Z,2.24
2019-02-03T17:01:04.373Z,2.21
2019-02-03T17:03:33.054Z,2.20
2019-02-03T17:06:01.787Z,2.15
2019-02-03T17:08:33.492Z,2.09
2019-02-03T17:11:05.808Z,2.15
2019-02-03T17:13:34.692Z,2.15
2019-02-03T17:16:03.692Z,2.12
2019-02-03T17:18:32.335Z,2.04
2019-02-03T17:21:03.712Z,2.20
2019-02-03T17:23:34.732Z,2.06
2019-02-03T17:26:04.712Z,2.17
2019-02-03T17:28:33.356Z,2.04
2019-02-03T17:31:02.109Z,1.99
2019-02-03T17:33:30.839Z,2.00
2019-02-03T17:36:00.037Z,2.09
2019-02-03T17:38:28.924Z,1.86
2019-02-03T17:41:00.503Z,1.79
2019-02-03T17:43:30.811Z,1.90
2019-02-03T17:45:59.453Z,1.84
2019-02-03T17:48:28.297Z,1.88
2019-02-03T17:50:57.120Z,1.84
2019-02-03T17:53:26.195Z,1.92
2019-02-03T17:55:54.949Z,1.94
2019-02-03T17:58:23.666Z,1.71
2019-02-03T18:00:53.969Z,1.66
2019-02-03T18:03:22.742Z,1.62
2019-02-03T18:05:51.496Z,1.76
2019-02-03T18:08:20.178Z,1.70
2019-02-03T18:10:49.017Z,1.59
2019-02-03T18:13:19.296Z,1.63
2019-02-03T18:15:49.542Z,1.64
2019-02-03T18:18:18.266Z,1.74
2019-02-03T18:20:47.054Z,1.71
2019-02-03T18:23:17.183Z,1.63
2019-02-03T18:25:47.764Z,1.47
2019-02-03T18:28:17.005Z,1.47
2019-02-03T18:30:45.765Z,1.55
2019-02-03T18:33:14.449Z,1.61
2019-02-03T18:35:43.865Z,1.70
2019-02-03T18:38:15.165Z,1.61
2019-02-03T18:40:44.920Z,1.50
2019-02-03T18:43:14.043Z,1.50
2019-02-03T18:45:44.803Z,1.41
2019-02-03T18:48:14.120Z,1.66
2019-02-03T18:50:44.389Z,1.43
2019-02-03T18:53:13.285Z,1.33
2019-02-03T18:55:47.085Z,1.31
2019-02-03T18:58:18.826Z,1.35
2019-02-03T19:00:49.178Z,1.53
2019-02-03T19:03:18.042Z,1.50
2019-02-03T19:05:48.957Z,1.31
2019-02-03T19:08:19.768Z,1.35
2019-02-03T19:10:48.513Z,1.34
2019-02-03T19:13:17.198Z,1.28
2019-02-03T19:15:47.545Z,1.28
2019-02-03T19:18:16.959Z,1.25
2019-02-03T19:20:47.897Z,1.24
2019-02-03T19:23:16.674Z,1.31
2019-02-03T19:25:45.489Z,1.34
2019-02-03T19:28:15.441Z,1.28
2019-02-03T19:30:44.908Z,1.25
2019-02-03T19:33:15.323Z,1.42
2019-02-03T19:35:44.487Z,1.29
2019-02-03T19:38:14.850Z,1.35
2019-02-03T19:40:45.390Z,1.32
2019-02-03T19:43:16.029Z,1.43
2019-02-03T19:45:46.598Z,1.40
2019-02-03T19:48:18.830Z,1.37
2019-02-03T19:50:50.040Z,1.21
2019-02-03T19:53:18.910Z,1.20
2019-02-03T19:55:48.123Z,1.16
2019-02-03T19:58:22.544Z,1.44
2019-02-03T20:00:51.319Z,1.35
2019-02-03T20:03:20.752Z,1.13
2019-02-03T20:05:49.755Z,1.23
2019-02-03T20:08:20.227Z,1.26
2019-02-03T20:10:48.930Z,1.26
2019-02-03T20:13:19.501Z,1.26
2019-02-03T20:15:51.941Z,1.23
2019-02-03T20:18:22.720Z,1.31
2019-02-03T20:20:52.496Z,1.30
2019-02-03T20:23:21.428Z,1.21
2019-02-03T20:25:50.147Z,1.23
2019-02-03T20:28:19.121Z,1.18
2019-02-03T20:30:48.012Z,1.14
2019-02-03T20:33:16.898Z,1.31
2019-02-03T20:35:46.039Z,1.53
2019-02-03T20:38:16.775Z,1.30
2019-02-03T20:40:46.272Z,1.26
2019-02-03T20:43:18.142Z,1.25
2019-02-03T20:45:49.999Z,1.18
2019-02-03T20:48:19.081Z,1.04
2019-02-03T20:50:48.253Z,1.04
2019-02-03T20:53:18.011Z,1.00
2019-02-03T20:56:09.988Z,0.97
2019-02-03T20:58:39.414Z,1.02
2019-02-03T21:01:08.381Z,1.16
2019-02-03T21:03:39.012Z,0.99
2019-02-03T21:06:11.359Z,0.97
2019-02-03T21:08:44.052Z,0.95
2019-02-03T21:11:13.895Z,0.91
2019-02-03T21:13:45.012Z,0.82
2019-02-03T21:16:14.318Z,0.88
2019-02-03T21:18:45.258Z,0.91
2019-02-03T21:21:17.595Z,1.04
2019-02-03T21:23:48.025Z,0.87
2019-02-03T21:26:16.888Z,0.86
2019-02-03T21:28:45.656Z,0.77
2019-02-03T21:31:14.903Z,0.75
2019-02-03T21:33:43.718Z,0.71
2019-02-03T21:36:12.553Z,0.75
2019-02-03T21:38:41.328Z,0.78
2019-02-03T21:41:10.155Z,0.71
2019-02-03T21:43:38.976Z,0.77
2019-02-03T21:46:07.703Z,0.77
2019-02-03T21:48:37.794Z,0.68
2019-02-03T21:51:06.469Z,0.73
2019-02-03T21:53:35.585Z,0.79
2019-02-03T21:56:04.261Z,0.69
2019-02-03T21:58:33.179Z,0.70
2019-02-03T22:01:01.868Z,0.74
2019-02-03T22:03:30.511Z,0.74
2019-02-03T22:05:59.268Z,0.68
2019-02-03T22:08:28.373Z,0.64
2019-02-03T22:10:57.118Z,0.85
2019-02-03T22:13:25.770Z,0.71
2019-02-03T22:15:56.072Z,0.71
2019-02-03T22:18:25.029Z,0.69
2019-02-03T22:20:53.710Z,0.59
2019-02-03T22:23:22.337Z,0.67
2019-02-03T22:25:51.069Z,0.75
2019-02-03T22:28:19.841Z,0.76
2019-02-03T22:30:48.515Z,0.59
2019-02-03T22:33:17.235Z,0.51
2019-02-03T22:35:45.870Z,0.51
2019-02-03T22:38:14.562Z,0.62
2019-02-03T22:40:43.294Z,0.52
2019-02-03T22:43:11.971Z,0.56
2019-02-03T22:45:40.673Z,0.48
2019-02-03T22:48:09.319Z,0.38
2019-02-03T22:50:38.015Z,0.58
2019-02-03T22:53:06.645Z,0.36
2019-02-03T22:55:35.282Z,0.40
2019-02-03T22:58:03.957Z,0.48
2019-02-03T23:00:45.924Z,0.42
2019-02-03T23:03:15.398Z,0.41
2019-02-03T23:05:44.081Z,0.55
2019-02-03T23:08:12.718Z,0.51
2019-02-03T23:10:41.406Z,0.46
2019-02-03T23:13:10.364Z,0.44
2019-02-03T23:15:39.537Z,0.36
2019-02-03T23:18:08.401Z,0.33
2019-02-03T23:20:37.157Z,0.36
2019-02-03T23:23:05.767Z,0.46
2019-02-03T23:25:34.466Z,0.54
2019-02-03T23:28:03.123Z,0.37
2019-02-03T23:30:31.797Z,0.32
2019-02-03T23:33:00.768Z,0.54
2019-02-03T23:35:29.385Z,0.37
2019-02-03T23:37:58.080Z,0.27
2019-02-03T23:40:26.696Z,0.31
2019-02-03T23:42:55.322Z,0.24
2019-02-03T23:45:24.012Z,0.20
2019-02-03T23:47:53.217Z,0.40
2019-02-03T23:50:22.622Z,0.24
2019-02-03T23:52:51.233Z,0.20
2019-02-03T23:55:19.931Z,0.14
2019-02-03T23:57:48.546Z,0.00
